createdAt,value
2023-04-30T00:00:48.709Z,2.33
2023-04-30T00:03:36.443Z,4.60
2023-04-30T00:06:25.517Z,2.03
2023-04-30T00:09:14.257Z,1.60
2023-04-30T00:12:01.573Z,3.47
2023-04-30T00:14:49.376Z,5.03
2023-04-30T00:17:38.434Z,3.10
2023-04-30T00:20:25.822Z,2.30
2023-04-30T00:23:13.287Z,3.77
2023-04-30T00:26:00.920Z,2.87
2023-04-30T00:28:48.384Z,2.50
2023-04-30T00:31:36.152Z,3.40
2023-04-30T00:34:24.822Z,1.53
2023-04-30T00:37:12.740Z,4.03
2023-04-30T00:40:00.421Z,2.37
2023-04-30T00:42:48.615Z,2.17
2023-04-30T00:45:36.425Z,3.03
2023-04-30T00:48:24.187Z,2.47
2023-04-30T00:51:13.287Z,3.43
2023-04-30T00:54:02.350Z,3.73
2023-04-30T00:56:49.723Z,5.17
2023-04-30T00:59:37.232Z,6.27
2023-04-30T01:02:24.916Z,4.10
2023-04-30T01:05:12.504Z,2.63
2023-04-30T01:08:01.142Z,4.50
2023-04-30T01:10:53.867Z,2.33
2023-04-30T01:13:42.485Z,3.47
2023-04-30T01:16:31.757Z,3.63
2023-04-30T01:19:24.771Z,5.40
2023-04-30T01:22:13.996Z,4.83
2023-04-30T01:25:16.504Z,1.63
2023-04-30T01:28:06.662Z,2.70
2023-04-30T01:30:54.677Z,2.30
2023-04-30T01:33:42.802Z,7.87
2023-04-30T01:36:45.605Z,3.40
2023-04-30T01:39:41.601Z,3.43
2023-04-30T01:42:32.698Z,7.40
2023-04-30T01:45:33.408Z,2.73
2023-04-30T01:48:24.380Z,4.53
2023-04-30T01:51:16.916Z,7.40
2023-04-30T01:54:07.937Z,4.77
2023-04-30T01:56:58.756Z,4.17
2023-04-30T01:59:47.524Z,4.30
2023-04-30T02:02:36.465Z,2.77
2023-04-30T02:05:23.972Z,2.70
2023-04-30T02:08:11.259Z,5.33
2023-04-30T02:10:58.982Z,4.63
2023-04-30T02:13:46.387Z,4.73
2023-04-30T02:16:33.748Z,5.57
2023-04-30T02:19:23.208Z,3.30
2023-04-30T02:22:10.993Z,4.50
2023-04-30T02:24:59.069Z,6.17
2023-04-30T02:27:46.754Z,5.27
2023-04-30T02:30:34.009Z,4.57
2023-04-30T02:33:21.379Z,6.87
2023-04-30T02:36:10.222Z,5.10
2023-04-30T02:38:57.676Z,4.87
2023-04-30T02:41:45.032Z,3.83
2023-04-30T02:44:32.455Z,4.30
2023-04-30T02:47:19.732Z,4.47
2023-04-30T02:50:07.608Z,5.13
2023-04-30T02:52:57.033Z,4.70
2023-04-30T02:55:44.411Z,6.77
2023-04-30T02:58:31.866Z,2.97
2023-04-30T03:01:19.179Z,3.27
2023-04-30T03:04:06.548Z,3.23
2023-04-30T03:06:53.805Z,4.07
2023-04-30T03:09:42.470Z,3.57
2023-04-30T03:12:30.075Z,3.63
2023-04-30T03:15:17.488Z,5.37
2023-04-30T03:18:05.209Z,3.73
2023-04-30T03:20:52.622Z,3.63
2023-04-30T03:23:40.087Z,3.47
2023-04-30T03:26:28.883Z,4.43
2023-04-30T03:29:16.220Z,3.23
2023-04-30T03:32:03.748Z,3.03
2023-04-30T03:34:52.040Z,2.77
2023-04-30T03:37:39.418Z,4.60
2023-04-30T03:40:26.697Z,9.20
2023-04-30T03:43:15.602Z,4.40
2023-04-30T03:46:03.787Z,4.47
2023-04-30T03:48:51.217Z,4.97
2023-04-30T03:51:39.746Z,4.53
2023-04-30T03:54:27.050Z,3.53
2023-04-30T03:57:15.126Z,4.53
2023-04-30T04:00:07.656Z,3.60
2023-04-30T04:03:00.581Z,4.10
2023-04-30T04:05:49.145Z,2.63
2023-04-30T04:08:37.416Z,4.83
2023-04-30T04:11:25.735Z,3.97
2023-04-30T04:14:13.497Z,2.83
2023-04-30T04:17:05.558Z,6.07
2023-04-30T04:19:53.250Z,4.97
2023-04-30T04:22:41.024Z,6.10
2023-04-30T04:25:28.675Z,3.03
2023-04-30T04:28:15.948Z,4.87
2023-04-30T04:31:04.136Z,3.57
2023-04-30T04:33:58.191Z,2.50
2023-04-30T04:36:46.013Z,5.27
2023-04-30T04:39:33.378Z,6.20
2023-04-30T04:42:21.247Z,5.30
2023-04-30T04:45:09.661Z,5.40
2023-04-30T04:47:57.770Z,4.67
2023-04-30T04:50:46.820Z,6.30
2023-04-30T04:53:34.929Z,1.87
2023-04-30T04:56:22.534Z,3.47
2023-04-30T04:59:09.997Z,6.03
2023-04-30T05:01:57.662Z,7.50
2023-04-30T05:04:46.900Z,2.57
2023-04-30T05:07:36.181Z,6.83
2023-04-30T05:10:23.929Z,5.23
2023-04-30T05:13:11.839Z,5.07
2023-04-30T05:15:59.196Z,6.10
2023-04-30T05:18:46.584Z,4.90
2023-04-30T05:21:33.964Z,2.80
2023-04-30T05:24:22.597Z,4.70
2023-04-30T05:27:10.180Z,4.43
2023-04-30T05:29:57.609Z,3.53
2023-04-30T05:32:50.862Z,4.73
2023-04-30T05:35:38.442Z,2.93
2023-04-30T05:38:25.669Z,2.47
2023-04-30T05:41:14.521Z,5.80
2023-04-30T05:44:04.920Z,5.30
2023-04-30T05:46:52.689Z,5.10
2023-04-30T05:49:40.193Z,6.27
2023-04-30T05:52:27.589Z,7.10
2023-04-30T05:55:14.962Z,6.30
2023-04-30T05:58:03.693Z,7.20
2023-04-30T06:00:51.983Z,3.33
2023-04-30T06:03:39.649Z,6.93
2023-04-30T06:06:27.067Z,5.77
2023-04-30T06:09:14.485Z,5.83
2023-04-30T06:12:02.466Z,5.70
2023-04-30T06:14:51.403Z,4.00
2023-04-30T06:17:39.092Z,5.70
2023-04-30T06:20:27.262Z,3.87
2023-04-30T06:23:14.897Z,4.97
2023-04-30T06:26:02.584Z,9.73
2023-04-30T06:28:49.926Z,4.63
2023-04-30T06:31:38.872Z,2.83
2023-04-30T06:34:26.710Z,3.77
2023-04-30T06:37:14.402Z,12.17
2023-04-30T06:40:01.815Z,4.43
2023-04-30T06:42:49.244Z,2.57
2023-04-30T06:45:36.677Z,4.17
2023-04-30T06:48:25.774Z,6.00
2023-04-30T06:51:13.454Z,5.27
2023-04-30T06:54:00.901Z,5.17
2023-04-30T06:56:48.578Z,6.22
2023-04-30T06:59:35.919Z,6.18
2023-04-30T07:02:23.410Z,7.20
2023-04-30T07:05:12.928Z,4.60
2023-04-30T07:08:00.549Z,4.53
2023-04-30T07:10:48.076Z,4.28
2023-04-30T07:13:35.351Z,7.82
2023-04-30T07:16:22.937Z,5.85
2023-04-30T07:19:10.562Z,5.60
2023-04-30T07:21:59.223Z,4.68
2023-04-30T07:24:46.917Z,4.45
2023-04-30T07:27:34.346Z,5.43
2023-04-30T07:30:24.388Z,7.70
2023-04-30T07:33:12.922Z,5.82
2023-04-30T07:36:00.335Z,5.47
2023-04-30T07:38:49.456Z,4.63
2023-04-30T07:41:37.094Z,5.45
2023-04-30T07:44:24.298Z,6.13
2023-04-30T07:47:11.683Z,6.57
2023-04-30T07:49:59.006Z,7.65
2023-04-30T07:52:46.367Z,3.45
2023-04-30T07:55:34.934Z,5.68
2023-04-30T07:58:22.581Z,5.72
2023-04-30T08:01:10.004Z,5.93
2023-04-30T08:03:57.501Z,4.80
2023-04-30T08:06:45.301Z,4.50
2023-04-30T08:09:33.332Z,3.88
2023-04-30T08:12:22.469Z,5.40
2023-04-30T08:15:10.158Z,4.03
2023-04-30T08:17:57.939Z,4.35
2023-04-30T08:20:45.390Z,3.50
2023-04-30T08:23:32.925Z,2.10
2023-04-30T08:26:21.064Z,7.05
2023-04-30T08:29:09.809Z,4.40
2023-04-30T08:31:57.557Z,6.07
2023-04-30T08:34:44.947Z,3.42
2023-04-30T08:37:32.350Z,2.25
2023-04-30T08:40:20.330Z,4.38
2023-04-30T08:43:09.481Z,3.55
2023-04-30T08:45:58.791Z,4.28
2023-04-30T08:48:48.335Z,4.45
2023-04-30T08:51:36.205Z,3.97
2023-04-30T08:54:24.586Z,3.38
2023-04-30T08:57:11.997Z,4.72
2023-04-30T08:59:59.478Z,4.03
2023-04-30T09:02:48.658Z,2.47
2023-04-30T09:05:35.879Z,5.03
2023-04-30T09:08:38.193Z,3.72
2023-04-30T09:11:26.405Z,3.53
2023-04-30T09:14:13.849Z,3.50
2023-04-30T09:17:01.672Z,2.20
2023-04-30T09:19:50.877Z,2.85
2023-04-30T09:22:38.876Z,6.13
2023-04-30T09:25:39.687Z,6.15
2023-04-30T09:28:28.783Z,2.08
2023-04-30T09:31:20.978Z,2.90
2023-04-30T09:34:08.398Z,2.67
2023-04-30T09:36:57.792Z,4.90
2023-04-30T09:39:49.488Z,2.25
2023-04-30T09:42:37.282Z,1.75
2023-04-30T09:45:25.070Z,2.50
2023-04-30T09:48:17.185Z,3.72
2023-04-30T09:51:05.281Z,2.00
2023-04-30T09:53:54.859Z,2.53
2023-04-30T09:56:42.544Z,1.98
2023-04-30T09:59:32.014Z,3.42
2023-04-30T10:02:20.193Z,2.80
2023-04-30T10:05:07.978Z,1.90
2023-04-30T10:07:55.236Z,2.03
2023-04-30T10:10:45.387Z,2.47
2023-04-30T10:13:34.372Z,3.38
2023-04-30T10:16:26.207Z,2.38
2023-04-30T10:19:15.822Z,1.52
2023-04-30T10:22:03.597Z,3.33
2023-04-30T10:24:51.924Z,4.63
2023-04-30T10:27:41.005Z,2.08
2023-04-30T10:30:28.498Z,2.80
2023-04-30T10:33:20.975Z,2.42
2023-04-30T10:36:09.250Z,1.90
2023-04-30T10:38:56.984Z,2.50
2023-04-30T10:41:48.844Z,3.63
2023-04-30T10:44:38.647Z,2.30
2023-04-30T10:47:30.299Z,2.00
2023-04-30T10:50:17.756Z,2.67
2023-04-30T10:53:05.759Z,2.50
2023-04-30T10:55:55.057Z,2.55
2023-04-30T10:58:44.066Z,3.20
2023-04-30T11:01:33.257Z,2.83
2023-04-30T11:04:20.656Z,5.30
2023-04-30T11:07:11.562Z,2.47
2023-04-30T11:09:59.196Z,1.98
2023-04-30T11:12:50.138Z,6.32
2023-04-30T11:15:42.218Z,2.33
2023-04-30T11:18:31.169Z,2.53
2023-04-30T11:21:18.837Z,4.07
2023-04-30T11:24:06.390Z,2.33
2023-04-30T11:27:14.929Z,3.75
2023-04-30T11:30:03.064Z,3.92
2023-04-30T11:32:51.672Z,3.80
2023-04-30T11:35:40.309Z,2.50
2023-04-30T11:38:28.917Z,4.07
2023-04-30T11:41:16.284Z,4.40
2023-04-30T11:44:03.924Z,4.97
2023-04-30T11:46:51.677Z,3.00
2023-04-30T11:49:39.094Z,2.63
2023-04-30T11:52:28.558Z,4.03
2023-04-30T11:55:17.059Z,2.58
2023-04-30T11:58:04.476Z,3.65
2023-04-30T12:00:53.264Z,2.47
2023-04-30T12:03:44.796Z,2.78
2023-04-30T12:06:32.426Z,2.53
2023-04-30T12:09:21.554Z,3.78
2023-04-30T12:12:09.378Z,2.85
2023-04-30T12:14:56.722Z,3.70
2023-04-30T12:17:44.668Z,5.10
2023-04-30T12:20:33.280Z,2.30
2023-04-30T12:23:21.478Z,6.43
2023-04-30T12:26:10.125Z,3.22
2023-04-30T12:28:57.697Z,3.75
2023-04-30T12:31:45.371Z,2.55
2023-04-30T12:34:33.908Z,3.13
2023-04-30T12:37:22.474Z,3.30
2023-04-30T12:40:10.076Z,5.68
2023-04-30T12:43:03.306Z,3.13
2023-04-30T12:45:52.457Z,3.30
2023-04-30T12:48:45.369Z,2.72
2023-04-30T12:51:35.051Z,2.53
2023-04-30T12:54:29.127Z,2.28
2023-04-30T12:57:16.551Z,3.78
2023-04-30T13:00:06.691Z,4.57
2023-04-30T13:02:54.238Z,4.10
2023-04-30T13:05:42.408Z,2.40
2023-04-30T13:08:29.890Z,3.47
2023-04-30T13:11:17.504Z,2.95
2023-04-30T13:14:04.832Z,3.13
2023-04-30T13:16:53.748Z,3.78
2023-04-30T13:19:41.830Z,2.25
2023-04-30T13:22:30.148Z,2.72
2023-04-30T13:25:18.014Z,3.47
2023-04-30T13:28:05.598Z,4.75
2023-04-30T13:30:53.272Z,2.47
2023-04-30T13:33:42.234Z,2.08
2023-04-30T13:36:29.918Z,2.95
2023-04-30T13:39:17.508Z,2.60
2023-04-30T13:42:05.391Z,3.78
2023-04-30T13:44:53.070Z,3.13
2023-04-30T13:47:40.457Z,3.78
2023-04-30T13:50:29.567Z,4.65
2023-04-30T13:53:16.964Z,3.42
2023-04-30T13:56:04.415Z,4.93
2023-04-30T13:58:52.053Z,2.35
2023-04-30T14:01:40.332Z,3.83
2023-04-30T14:04:28.241Z,2.97
2023-04-30T14:07:17.423Z,3.70
2023-04-30T14:10:05.365Z,2.78
2023-04-30T14:12:52.966Z,3.95
2023-04-30T14:15:40.478Z,4.32
2023-04-30T14:18:27.941Z,3.55
2023-04-30T14:21:15.399Z,4.70
2023-04-30T14:24:04.970Z,4.03
2023-04-30T14:26:53.332Z,6.70
2023-04-30T14:29:40.747Z,3.67
2023-04-30T14:32:28.481Z,8.35
2023-04-30T14:35:15.759Z,21.73
2023-04-30T14:38:03.637Z,4.07
2023-04-30T14:40:52.859Z,6.60
2023-04-30T14:43:41.465Z,3.97
2023-04-30T14:46:29.067Z,3.28
2023-04-30T14:49:16.824Z,5.32
2023-04-30T14:52:04.513Z,6.20
2023-04-30T14:54:51.970Z,3.40
2023-04-30T14:57:40.998Z,2.97
2023-04-30T15:00:29.084Z,3.72
2023-04-30T15:03:17.151Z,2.05
2023-04-30T15:06:04.953Z,3.92
2023-04-30T15:08:52.266Z,3.88
2023-04-30T15:11:40.041Z,6.18
2023-04-30T15:14:29.013Z,3.35
2023-04-30T15:17:16.630Z,3.45
2023-04-30T15:20:04.069Z,5.07
2023-04-30T15:22:53.719Z,2.63
2023-04-30T15:25:43.061Z,4.22
2023-04-30T15:28:30.344Z,4.32
2023-04-30T15:31:19.141Z,3.25
2023-04-30T15:34:06.773Z,4.25
2023-04-30T15:36:54.199Z,4.95
2023-04-30T15:39:41.750Z,5.45
2023-04-30T15:42:29.565Z,3.03
2023-04-30T15:45:16.986Z,3.97
2023-04-30T15:48:06.648Z,6.05
2023-04-30T15:50:54.149Z,2.95
2023-04-30T15:53:41.585Z,5.32
2023-04-30T15:56:29.001Z,7.00
2023-04-30T15:59:18.463Z,7.00
2023-04-30T16:02:07.389Z,3.33
2023-04-30T16:04:56.581Z,3.78
2023-04-30T16:07:45.575Z,4.90
2023-04-30T16:10:33.368Z,2.75
2023-04-30T16:13:20.922Z,3.97
2023-04-30T16:16:08.837Z,6.90
2023-04-30T16:18:56.454Z,4.70
2023-04-30T16:21:45.153Z,6.75
2023-04-30T16:24:32.929Z,3.85
2023-04-30T16:27:20.350Z,2.28
2023-04-30T16:30:08.392Z,7.15
2023-04-30T16:32:56.033Z,3.65
2023-04-30T16:35:43.465Z,4.25
2023-04-30T16:38:32.193Z,3.42
2023-04-30T16:41:21.426Z,2.40
2023-04-30T16:44:09.795Z,5.15
2023-04-30T16:46:59.472Z,3.30
2023-04-30T16:49:47.211Z,2.78
2023-04-30T16:52:34.587Z,2.95
2023-04-30T16:55:23.463Z,5.45
2023-04-30T16:58:11.195Z,3.00
2023-04-30T17:00:58.674Z,2.85
2023-04-30T17:03:46.197Z,3.22
2023-04-30T17:06:35.233Z,6.70
2023-04-30T17:09:22.820Z,6.53
2023-04-30T17:12:11.886Z,4.95
2023-04-30T17:14:59.660Z,1.80
2023-04-30T17:17:47.107Z,1.80
2023-04-30T17:20:34.373Z,2.03
2023-04-30T17:23:21.750Z,3.97
2023-04-30T17:26:09.058Z,2.38
2023-04-30T17:28:58.316Z,2.58
2023-04-30T17:31:45.859Z,2.78
2023-04-30T17:34:33.476Z,3.33
2023-04-30T17:37:21.058Z,1.70
2023-04-30T17:40:09.475Z,3.28
2023-04-30T17:42:57.041Z,3.25
2023-04-30T17:45:46.437Z,5.20
2023-04-30T17:48:33.987Z,3.35
2023-04-30T17:51:21.412Z,4.13
2023-04-30T17:54:08.804Z,1.70
2023-04-30T17:56:56.944Z,5.47
2023-04-30T17:59:44.316Z,1.98
2023-04-30T18:02:33.084Z,2.70
2023-04-30T18:05:20.792Z,3.95
2023-04-30T18:08:08.678Z,2.42
2023-04-30T18:10:56.915Z,5.25
2023-04-30T18:13:44.758Z,2.38
2023-04-30T18:16:32.823Z,4.63
2023-04-30T18:19:21.928Z,4.75
2023-04-30T18:22:09.620Z,3.70
2023-04-30T18:24:57.069Z,2.50
2023-04-30T18:27:44.938Z,2.58
2023-04-30T18:30:32.592Z,3.60
2023-04-30T18:33:20.042Z,4.70
2023-04-30T18:36:08.995Z,2.65
2023-04-30T18:38:56.743Z,3.00
2023-04-30T18:41:44.681Z,3.38
2023-04-30T18:44:32.589Z,2.10
2023-04-30T18:47:20.165Z,2.50
2023-04-30T18:50:10.551Z,2.90
2023-04-30T18:52:59.339Z,3.92
2023-04-30T18:55:47.318Z,5.22
2023-04-30T18:58:35.139Z,2.92
2023-04-30T19:01:24.377Z,4.70
2023-04-30T19:04:15.740Z,3.60
2023-04-30T19:07:03.362Z,7.67
2023-04-30T19:09:53.550Z,6.28
2023-04-30T19:12:43.847Z,14.88
2023-04-30T19:15:31.137Z,19.77
2023-04-30T19:18:18.742Z,19.33
2023-04-30T19:21:07.112Z,23.23
2023-04-30T19:23:54.826Z,23.67
2023-04-30T19:26:43.536Z,24.27
2023-04-30T19:29:31.177Z,22.20
2023-04-30T19:32:18.524Z,23.00
2023-04-30T19:35:06.294Z,11.83
2023-04-30T19:37:53.936Z,14.13
2023-04-30T19:40:41.415Z,21.07
2023-04-30T19:43:30.232Z,14.70
2023-04-30T19:46:17.847Z,13.03
2023-04-30T19:49:05.192Z,14.43
2023-04-30T19:51:52.618Z,10.80
2023-04-30T19:54:40.285Z,11.00
2023-04-30T19:57:28.015Z,10.37
2023-04-30T20:00:17.192Z,11.20
2023-04-30T20:03:05.446Z,18.80
2023-04-30T20:05:53.128Z,17.20
2023-04-30T20:08:40.675Z,20.53
2023-04-30T20:11:28.053Z,17.37
2023-04-30T20:14:15.410Z,15.80
2023-04-30T20:17:04.249Z,14.37
2023-04-30T20:19:52.140Z,11.57
2023-04-30T20:22:39.932Z,13.90
2023-04-30T20:25:29.359Z,16.37
2023-04-30T20:28:18.042Z,23.37
2023-04-30T20:31:06.781Z,20.07
2023-04-30T20:33:55.437Z,23.97
2023-04-30T20:36:43.220Z,21.50
2023-04-30T20:39:30.526Z,17.30
2023-04-30T20:42:19.103Z,10.80
2023-04-30T20:45:07.369Z,13.47
2023-04-30T20:47:54.686Z,12.67
2023-04-30T20:50:43.607Z,12.17
2023-04-30T20:53:31.305Z,7.10
2023-04-30T20:56:18.703Z,11.63
2023-04-30T20:59:06.007Z,10.40
2023-04-30T21:01:53.611Z,9.70
2023-04-30T21:04:40.972Z,8.73
2023-04-30T21:07:29.733Z,7.17
2023-04-30T21:10:17.271Z,8.60
2023-04-30T21:13:05.249Z,7.03
2023-04-30T21:15:54.393Z,6.67
2023-04-30T21:18:41.827Z,9.80
2023-04-30T21:21:29.310Z,7.30
2023-04-30T21:24:18.163Z,7.23
2023-04-30T21:27:06.095Z,8.60
2023-04-30T21:29:53.963Z,8.17
2023-04-30T21:32:44.363Z,10.80
2023-04-30T21:35:33.449Z,10.77
2023-04-30T21:38:20.890Z,6.97
2023-04-30T21:41:14.331Z,6.33
2023-04-30T21:44:01.979Z,7.43
2023-04-30T21:46:49.451Z,6.93
2023-04-30T21:49:36.937Z,8.53
2023-04-30T21:52:24.219Z,7.67
2023-04-30T21:55:12.248Z,10.27
2023-04-30T21:58:01.304Z,8.50
2023-04-30T22:00:49.568Z,9.80
2023-04-30T22:03:37.306Z,8.33
2023-04-30T22:06:24.708Z,7.73
2023-04-30T22:09:12.071Z,9.27
2023-04-30T22:12:00.184Z,9.13
2023-04-30T22:14:50.174Z,10.17
2023-04-30T22:17:37.700Z,13.70
2023-04-30T22:20:24.902Z,9.73
2023-04-30T22:23:12.334Z,9.20
2023-04-30T22:25:59.734Z,10.10
2023-04-30T22:28:47.165Z,8.83
2023-04-30T22:31:36.016Z,10.57
2023-04-30T22:34:23.852Z,7.13
2023-04-30T22:37:11.489Z,10.97
2023-04-30T22:39:59.184Z,10.23
2023-04-30T22:42:46.733Z,9.97
2023-04-30T22:45:36.958Z,10.63
2023-04-30T22:48:26.794Z,10.20
2023-04-30T22:51:14.594Z,9.93
2023-04-30T22:54:01.909Z,11.40
2023-04-30T22:56:49.346Z,12.10
2023-04-30T22:59:36.696Z,13.70
2023-04-30T23:02:26.166Z,13.27
2023-04-30T23:05:15.133Z,15.23
2023-04-30T23:08:03.061Z,14.67
2023-04-30T23:10:50.742Z,14.23
2023-04-30T23:13:38.424Z,14.77
2023-04-30T23:16:25.873Z,17.47
2023-04-30T23:19:13.192Z,17.40
2023-04-30T23:22:01.897Z,14.27
2023-04-30T23:24:49.518Z,13.40
2023-04-30T23:27:36.764Z,11.70
2023-04-30T23:30:23.972Z,12.67
2023-04-30T23:33:11.464Z,14.23
2023-04-30T23:35:58.937Z,16.97
2023-04-30T23:38:47.622Z,14.20
2023-04-30T23:41:35.318Z,14.17
2023-04-30T23:44:22.791Z,16.93
2023-04-30T23:47:10.316Z,15.27
2023-04-30T23:49:58.176Z,13.70
2023-04-30T23:52:45.931Z,14.53
2023-04-30T23:55:34.993Z,14.67
2023-04-30T23:58:22.819Z,14.60
